sensor_id;sensor_type;location;lat;lon;timestamp;P1;durP1;ratioP1;P2;durP2;ratioP2
24859;SDS011;12936;52.006;4.350;2023-07-13T00:01:41;17.80;;;3.58;;
24859;SDS011;12936;52.006;4.350;2023-07-13T00:04:36;18.83;;;3.40;;
24859;SDS011;12936;52.006;4.350;2023-07-13T00:07:19;15.68;;;3.13;;
24859;SDS011;12936;52.006;4.350;2023-07-13T00:10:32;18.90;;;2.85;;
24859;SDS011;12936;52.006;4.350;2023-07-13T00:13:43;19.30;;;3.33;;
24859;SDS011;12936;52.006;4.350;2023-07-13T00:16:17;17.42;;;3.40;;
24859;SDS011;12936;52.006;4.350;2023-07-13T00:18:51;17.83;;;3.05;;
24859;SDS011;12936;52.006;4.350;2023-07-13T00:22:12;14.95;;;3.45;;
24859;SDS011;12936;52.006;4.350;2023-07-13T00:24:48;19.45;;;3.28;;
24859;SDS011;12936;52.006;4.350;2023-07-13T00:27:22;16.25;;;3.55;;
24859;SDS011;12936;52.006;4.350;2023-07-13T00:30:17;17.05;;;3.35;;
24859;SDS011;12936;52.006;4.350;2023-07-13T00:32:47;14.88;;;3.22;;
24859;SDS011;12936;52.006;4.350;2023-07-13T00:35:48;11.77;;;2.33;;
24859;SDS011;12936;52.006;4.350;2023-07-13T00:38:40;11.57;;;2.28;;
24859;SDS011;12936;52.006;4.350;2023-07-13T00:41:12;11.52;;;2.17;;
24859;SDS011;12936;52.006;4.350;2023-07-13T00:43:50;10.85;;;2.20;;
24859;SDS011;12936;52.006;4.350;2023-07-13T00:46:25;12.68;;;2.17;;
24859;SDS011;12936;52.006;4.350;2023-07-13T00:49:04;10.23;;;2.00;;
24859;SDS011;12936;52.006;4.350;2023-07-13T00:51:45;12.80;;;2.35;;
24859;SDS011;12936;52.006;4.350;2023-07-13T00:54:43;12.40;;;2.10;;
24859;SDS011;12936;52.006;4.350;2023-07-13T00:57:36;13.90;;;2.33;;
24859;SDS011;12936;52.006;4.350;2023-07-13T01:00:15;15.52;;;2.78;;
24859;SDS011;12936;52.006;4.350;2023-07-13T01:02:56;12.27;;;2.03;;
24859;SDS011;12936;52.006;4.350;2023-07-13T01:06:07;10.40;;;1.75;;
24859;SDS011;12936;52.006;4.350;2023-07-13T01:09:02;8.02;;;1.45;;
24859;SDS011;12936;52.006;4.350;2023-07-13T01:11:56;8.32;;;1.48;;
24859;SDS011;12936;52.006;4.350;2023-07-13T01:14:56;7.75;;;1.60;;
24859;SDS011;12936;52.006;4.350;2023-07-13T01:17:36;4.72;;;1.20;;
24859;SDS011;12936;52.006;4.350;2023-07-13T01:20:08;3.63;;;1.00;;
24859;SDS011;12936;52.006;4.350;2023-07-13T01:23:14;6.20;;;1.17;;
24859;SDS011;12936;52.006;4.350;2023-07-13T01:26:24;5.07;;;1.17;;
24859;SDS011;12936;52.006;4.350;2023-07-13T01:29:03;6.43;;;1.05;;
24859;SDS011;12936;52.006;4.350;2023-07-13T01:31:53;4.50;;;1.10;;
24859;SDS011;12936;52.006;4.350;2023-07-13T01:34:49;5.03;;;0.82;;
24859;SDS011;12936;52.006;4.350;2023-07-13T01:37:21;4.00;;;1.00;;
24859;SDS011;12936;52.006;4.350;2023-07-13T01:40:10;6.60;;;1.38;;
24859;SDS011;12936;52.006;4.350;2023-07-13T01:42:55;5.95;;;1.20;;
24859;SDS011;12936;52.006;4.350;2023-07-13T01:45:28;4.60;;;1.00;;
24859;SDS011;12936;52.006;4.350;2023-07-13T01:47:57;4.55;;;0.98;;
24859;SDS011;12936;52.006;4.350;2023-07-13T01:50:47;5.97;;;1.20;;
24859;SDS011;12936;52.006;4.350;2023-07-13T01:53:30;5.50;;;1.17;;
24859;SDS011;12936;52.006;4.350;2023-07-13T01:56:08;3.63;;;1.17;;
24859;SDS011;12936;52.006;4.350;2023-07-13T01:59:14;4.68;;;1.20;;
24859;SDS011;12936;52.006;4.350;2023-07-13T02:02:09;7.30;;;0.98;;
24859;SDS011;12936;52.006;4.350;2023-07-13T02:04:38;3.80;;;1.23;;
24859;SDS011;12936;52.006;4.350;2023-07-13T02:07:13;6.28;;;1.30;;
24859;SDS011;12936;52.006;4.350;2023-07-13T02:09:44;6.28;;;1.08;;
24859;SDS011;12936;52.006;4.350;2023-07-13T02:12:18;3.20;;;0.98;;
24859;SDS011;12936;52.006;4.350;2023-07-13T02:14:48;4.82;;;1.27;;
24859;SDS011;12936;52.006;4.350;2023-07-13T02:17:41;5.10;;;1.27;;
24859;SDS011;12936;52.006;4.350;2023-07-13T02:20:10;7.38;;;1.65;;
24859;SDS011;12936;52.006;4.350;2023-07-13T02:22:47;9.30;;;1.98;;
24859;SDS011;12936;52.006;4.350;2023-07-13T02:25:59;10.35;;;1.90;;
24859;SDS011;12936;52.006;4.350;2023-07-13T02:28:37;8.77;;;1.90;;
24859;SDS011;12936;52.006;4.350;2023-07-13T02:31:29;10.55;;;1.65;;
24859;SDS011;12936;52.006;4.350;2023-07-13T02:34:27;7.22;;;1.52;;
24859;SDS011;12936;52.006;4.350;2023-07-13T02:37:01;13.02;;;2.03;;
24859;SDS011;12936;52.006;4.350;2023-07-13T02:39:37;8.27;;;1.90;;
24859;SDS011;12936;52.006;4.350;2023-07-13T02:42:33;10.93;;;2.15;;
24859;SDS011;12936;52.006;4.350;2023-07-13T02:45:10;10.50;;;2.92;;
24859;SDS011;12936;52.006;4.350;2023-07-13T02:48:05;10.38;;;2.20;;
24859;SDS011;12936;52.006;4.350;2023-07-13T02:50:35;6.93;;;2.08;;
24859;SDS011;12936;52.006;4.350;2023-07-13T02:53:04;16.48;;;2.78;;
24859;SDS011;12936;52.006;4.350;2023-07-13T02:55:37;12.75;;;2.22;;
24859;SDS011;12936;52.006;4.350;2023-07-13T02:58:33;9.32;;;2.38;;
24859;SDS011;12936;52.006;4.350;2023-07-13T03:01:13;10.02;;;2.55;;
24859;SDS011;12936;52.006;4.350;2023-07-13T03:03:48;12.30;;;2.28;;
24859;SDS011;12936;52.006;4.350;2023-07-13T03:06:17;15.68;;;3.03;;
24859;SDS011;12936;52.006;4.350;2023-07-13T03:09:00;12.10;;;2.75;;
24859;SDS011;12936;52.006;4.350;2023-07-13T03:11:35;18.13;;;4.05;;
24859;SDS011;12936;52.006;4.350;2023-07-13T03:14:57;14.65;;;3.10;;
24859;SDS011;12936;52.006;4.350;2023-07-13T03:17:55;14.63;;;2.90;;
24859;SDS011;12936;52.006;4.350;2023-07-13T03:20:44;12.95;;;2.85;;
24859;SDS011;12936;52.006;4.350;2023-07-13T03:23:37;14.80;;;4.20;;
24859;SDS011;12936;52.006;4.350;2023-07-13T03:26:28;11.13;;;2.08;;
24859;SDS011;12936;52.006;4.350;2023-07-13T03:29:23;16.75;;;3.25;;
24859;SDS011;12936;52.006;4.350;2023-07-13T03:31:59;14.05;;;2.72;;
24859;SDS011;12936;52.006;4.350;2023-07-13T03:35:05;13.68;;;2.90;;
24859;SDS011;12936;52.006;4.350;2023-07-13T03:37:40;8.85;;;2.40;;
24859;SDS011;12936;52.006;4.350;2023-07-13T03:40:50;10.65;;;2.83;;
24859;SDS011;12936;52.006;4.350;2023-07-13T03:43:47;12.43;;;2.65;;
24859;SDS011;12936;52.006;4.350;2023-07-13T03:46:18;8.93;;;2.42;;
24859;SDS011;12936;52.006;4.350;2023-07-13T03:48:59;14.00;;;3.22;;
24859;SDS011;12936;52.006;4.350;2023-07-13T03:51:57;12.82;;;2.95;;
24859;SDS011;12936;52.006;4.350;2023-07-13T03:54:35;10.38;;;2.60;;
24859;SDS011;12936;52.006;4.350;2023-07-13T03:57:09;14.35;;;2.35;;
24859;SDS011;12936;52.006;4.350;2023-07-13T03:59:48;9.90;;;2.35;;
24859;SDS011;12936;52.006;4.350;2023-07-13T04:02:18;13.48;;;2.60;;
24859;SDS011;12936;52.006;4.350;2023-07-13T04:05:00;11.90;;;2.90;;
24859;SDS011;12936;52.006;4.350;2023-07-13T04:07:35;13.57;;;2.42;;
24859;SDS011;12936;52.006;4.350;2023-07-13T04:10:09;8.82;;;2.42;;
24859;SDS011;12936;52.006;4.350;2023-07-13T04:13:25;11.40;;;2.70;;
24859;SDS011;12936;52.006;4.350;2023-07-13T04:16:20;12.45;;;2.50;;
24859;SDS011;12936;52.006;4.350;2023-07-13T04:18:51;12.30;;;2.63;;
24859;SDS011;12936;52.006;4.350;2023-07-13T04:21:30;9.85;;;2.38;;
24859;SDS011;12936;52.006;4.350;2023-07-13T04:27:12;11.43;;;2.58;;
24859;SDS011;12936;52.006;4.350;2023-07-13T04:29:52;6.13;;;2.13;;
24859;SDS011;12936;52.006;4.350;2023-07-13T04:33:03;9.52;;;2.47;;
24859;SDS011;12936;52.006;4.350;2023-07-13T04:35:39;6.38;;;2.05;;
24859;SDS011;12936;52.006;4.350;2023-07-13T04:38:31;8.98;;;2.25;;
24859;SDS011;12936;52.006;4.350;2023-07-13T04:41:30;11.60;;;2.17;;
24859;SDS011;12936;52.006;4.350;2023-07-13T04:44:23;11.88;;;2.50;;
24859;SDS011;12936;52.006;4.350;2023-07-13T04:46:53;8.95;;;2.58;;
24859;SDS011;12936;52.006;4.350;2023-07-13T04:49:25;8.82;;;2.20;;
24859;SDS011;12936;52.006;4.350;2023-07-13T04:52:36;8.00;;;2.30;;
24859;SDS011;12936;52.006;4.350;2023-07-13T04:55:24;12.85;;;2.55;;
24859;SDS011;12936;52.006;4.350;2023-07-13T04:58:09;12.35;;;2.75;;
24859;SDS011;12936;52.006;4.350;2023-07-13T05:00:44;9.32;;;2.03;;
24859;SDS011;12936;52.006;4.350;2023-07-13T05:03:26;8.35;;;2.05;;
24859;SDS011;12936;52.006;4.350;2023-07-13T05:05:55;10.07;;;2.20;;
24859;SDS011;12936;52.006;4.350;2023-07-13T05:08:25;11.77;;;2.20;;
24859;SDS011;12936;52.006;4.350;2023-07-13T05:10:56;7.13;;;2.10;;
24859;SDS011;12936;52.006;4.350;2023-07-13T05:13:27;7.97;;;1.95;;
24859;SDS011;12936;52.006;4.350;2023-07-13T05:15:58;10.57;;;2.47;;
24859;SDS011;12936;52.006;4.350;2023-07-13T05:18:27;9.98;;;2.35;;
24859;SDS011;12936;52.006;4.350;2023-07-13T05:20:59;13.13;;;2.55;;
24859;SDS011;12936;52.006;4.350;2023-07-13T05:23:29;8.30;;;2.30;;
24859;SDS011;12936;52.006;4.350;2023-07-13T05:25:58;9.07;;;2.30;;
24859;SDS011;12936;52.006;4.350;2023-07-13T05:28:37;11.65;;;2.53;;
24859;SDS011;12936;52.006;4.350;2023-07-13T05:31:06;10.52;;;2.00;;
24859;SDS011;12936;52.006;4.350;2023-07-13T05:33:36;8.63;;;2.05;;
24859;SDS011;12936;52.006;4.350;2023-07-13T05:36:04;5.80;;;2.13;;
24859;SDS011;12936;52.006;4.350;2023-07-13T05:38:33;7.95;;;2.20;;
24859;SDS011;12936;52.006;4.350;2023-07-13T05:41:04;7.72;;;2.13;;
24859;SDS011;12936;52.006;4.350;2023-07-13T05:43:32;7.55;;;2.15;;
24859;SDS011;12936;52.006;4.350;2023-07-13T05:46:02;5.60;;;2.03;;
24859;SDS011;12936;52.006;4.350;2023-07-13T05:48:30;6.05;;;2.40;;
24859;SDS011;12936;52.006;4.350;2023-07-13T05:50:59;9.93;;;2.30;;
24859;SDS011;12936;52.006;4.350;2023-07-13T05:53:29;6.65;;;2.22;;
24859;SDS011;12936;52.006;4.350;2023-07-13T05:55:59;9.75;;;2.47;;
24859;SDS011;12936;52.006;4.350;2023-07-13T05:58:28;7.85;;;2.30;;
24859;SDS011;12936;52.006;4.350;2023-07-13T06:01:00;11.95;;;2.10;;
24859;SDS011;12936;52.006;4.350;2023-07-13T06:03:31;8.65;;;2.22;;
24859;SDS011;12936;52.006;4.350;2023-07-13T06:06:00;8.57;;;2.40;;
24859;SDS011;12936;52.006;4.350;2023-07-13T06:08:28;8.82;;;2.33;;
24859;SDS011;12936;52.006;4.350;2023-07-13T06:11:01;11.00;;;2.67;;
24859;SDS011;12936;52.006;4.350;2023-07-13T06:13:31;8.90;;;1.98;;
24859;SDS011;12936;52.006;4.350;2023-07-13T06:16:01;8.15;;;2.17;;
24859;SDS011;12936;52.006;4.350;2023-07-13T06:18:33;8.05;;;1.88;;
24859;SDS011;12936;52.006;4.350;2023-07-13T06:21:05;6.93;;;2.13;;
24859;SDS011;12936;52.006;4.350;2023-07-13T06:23:40;10.70;;;2.47;;
24859;SDS011;12936;52.006;4.350;2023-07-13T06:26:09;8.57;;;2.30;;
24859;SDS011;12936;52.006;4.350;2023-07-13T06:28:38;6.03;;;2.05;;
24859;SDS011;12936;52.006;4.350;2023-07-13T06:31:08;7.50;;;2.58;;
24859;SDS011;12936;52.006;4.350;2023-07-13T06:33:38;11.00;;;2.35;;
24859;SDS011;12936;52.006;4.350;2023-07-13T06:36:08;9.07;;;2.00;;
24859;SDS011;12936;52.006;4.350;2023-07-13T06:38:36;7.65;;;2.50;;
24859;SDS011;12936;52.006;4.350;2023-07-13T06:41:07;10.85;;;2.78;;
24859;SDS011;12936;52.006;4.350;2023-07-13T06:43:36;7.65;;;2.40;;
24859;SDS011;12936;52.006;4.350;2023-07-13T06:46:10;8.20;;;2.45;;
24859;SDS011;12936;52.006;4.350;2023-07-13T06:48:38;8.02;;;2.38;;
24859;SDS011;12936;52.006;4.350;2023-07-13T06:51:06;8.80;;;2.28;;
24859;SDS011;12936;52.006;4.350;2023-07-13T06:53:35;8.70;;;2.40;;
24859;SDS011;12936;52.006;4.350;2023-07-13T06:56:04;13.77;;;2.53;;
24859;SDS011;12936;52.006;4.350;2023-07-13T06:58:33;6.57;;;2.75;;
24859;SDS011;12936;52.006;4.350;2023-07-13T07:01:02;11.25;;;3.10;;
24859;SDS011;12936;52.006;4.350;2023-07-13T07:03:35;10.48;;;2.45;;
24859;SDS011;12936;52.006;4.350;2023-07-13T07:06:07;14.68;;;2.45;;
24859;SDS011;12936;52.006;4.350;2023-07-13T07:08:42;8.98;;;2.30;;
24859;SDS011;12936;52.006;4.350;2023-07-13T07:11:12;7.30;;;2.20;;
24859;SDS011;12936;52.006;4.350;2023-07-13T07:13:41;10.23;;;2.58;;
24859;SDS011;12936;52.006;4.350;2023-07-13T07:16:10;6.95;;;2.42;;
24859;SDS011;12936;52.006;4.350;2023-07-13T07:18:41;6.72;;;2.10;;
24859;SDS011;12936;52.006;4.350;2023-07-13T07:21:11;8.73;;;2.65;;
24859;SDS011;12936;52.006;4.350;2023-07-13T07:23:40;9.95;;;2.45;;
24859;SDS011;12936;52.006;4.350;2023-07-13T07:26:09;8.00;;;2.35;;
24859;SDS011;12936;52.006;4.350;2023-07-13T07:28:38;10.45;;;2.22;;
24859;SDS011;12936;52.006;4.350;2023-07-13T07:31:10;8.88;;;2.88;;
24859;SDS011;12936;52.006;4.350;2023-07-13T07:34:00;10.32;;;2.33;;
24859;SDS011;12936;52.006;4.350;2023-07-13T07:36:28;7.95;;;2.33;;
24859;SDS011;12936;52.006;4.350;2023-07-13T07:38:59;9.40;;;2.10;;
24859;SDS011;12936;52.006;4.350;2023-07-13T07:41:28;6.68;;;2.20;;
24859;SDS011;12936;52.006;4.350;2023-07-13T07:44:00;10.40;;;2.78;;
24859;SDS011;12936;52.006;4.350;2023-07-13T07:46:28;10.07;;;2.97;;
24859;SDS011;12936;52.006;4.350;2023-07-13T07:48:56;10.88;;;2.58;;
24859;SDS011;12936;52.006;4.350;2023-07-13T07:51:28;13.45;;;3.17;;
24859;SDS011;12936;52.006;4.350;2023-07-13T07:53:58;11.68;;;2.83;;
24859;SDS011;12936;52.006;4.350;2023-07-13T07:56:27;6.50;;;2.20;;
24859;SDS011;12936;52.006;4.350;2023-07-13T07:58:58;6.45;;;2.35;;
24859;SDS011;12936;52.006;4.350;2023-07-13T08:01:30;7.63;;;1.98;;
24859;SDS011;12936;52.006;4.350;2023-07-13T08:04:01;7.40;;;2.13;;
24859;SDS011;12936;52.006;4.350;2023-07-13T08:06:33;8.57;;;2.70;;
24859;SDS011;12936;52.006;4.350;2023-07-13T08:09:04;8.48;;;2.35;;
24859;SDS011;12936;52.006;4.350;2023-07-13T08:11:32;5.85;;;2.40;;
24859;SDS011;12936;52.006;4.350;2023-07-13T08:14:03;7.60;;;2.47;;
24859;SDS011;12936;52.006;4.350;2023-07-13T08:16:31;10.70;;;2.25;;
24859;SDS011;12936;52.006;4.350;2023-07-13T08:19:00;8.00;;;2.35;;
24859;SDS011;12936;52.006;4.350;2023-07-13T08:21:28;6.32;;;2.15;;
24859;SDS011;12936;52.006;4.350;2023-07-13T08:24:03;11.85;;;2.30;;
24859;SDS011;12936;52.006;4.350;2023-07-13T08:26:33;14.48;;;2.70;;
24859;SDS011;12936;52.006;4.350;2023-07-13T08:29:01;9.57;;;2.50;;
24859;SDS011;12936;52.006;4.350;2023-07-13T08:31:30;8.60;;;2.85;;
24859;SDS011;12936;52.006;4.350;2023-07-13T08:34:18;12.50;;;2.50;;
24859;SDS011;12936;52.006;4.350;2023-07-13T08:36:47;10.30;;;2.45;;
24859;SDS011;12936;52.006;4.350;2023-07-13T08:39:16;9.48;;;2.50;;
24859;SDS011;12936;52.006;4.350;2023-07-13T08:41:45;7.03;;;2.42;;
24859;SDS011;12936;52.006;4.350;2023-07-13T08:44:16;7.97;;;2.13;;
24859;SDS011;12936;52.006;4.350;2023-07-13T08:46:49;9.85;;;2.30;;
24859;SDS011;12936;52.006;4.350;2023-07-13T08:49:22;10.30;;;2.40;;
24859;SDS011;12936;52.006;4.350;2023-07-13T08:51:53;5.90;;;2.20;;
24859;SDS011;12936;52.006;4.350;2023-07-13T08:54:28;8.20;;;2.45;;
24859;SDS011;12936;52.006;4.350;2023-07-13T08:56:59;12.10;;;2.38;;
24859;SDS011;12936;52.006;4.350;2023-07-13T08:59:36;6.72;;;2.03;;
24859;SDS011;12936;52.006;4.350;2023-07-13T09:02:08;8.55;;;2.25;;
24859;SDS011;12936;52.006;4.350;2023-07-13T09:04:49;10.65;;;3.00;;
24859;SDS011;12936;52.006;4.350;2023-07-13T09:07:23;6.28;;;2.30;;
24859;SDS011;12936;52.006;4.350;2023-07-13T09:10:05;8.10;;;2.38;;
24859;SDS011;12936;52.006;4.350;2023-07-13T09:12:45;10.23;;;2.65;;
24859;SDS011;12936;52.006;4.350;2023-07-13T09:15:24;8.70;;;2.58;;
24859;SDS011;12936;52.006;4.350;2023-07-13T09:18:00;9.23;;;2.50;;
24859;SDS011;12936;52.006;4.350;2023-07-13T09:20:36;5.68;;;2.25;;
24859;SDS011;12936;52.006;4.350;2023-07-13T09:23:12;7.03;;;2.35;;
24859;SDS011;12936;52.006;4.350;2023-07-13T09:25:48;6.57;;;2.30;;
24859;SDS011;12936;52.006;4.350;2023-07-13T09:28:23;5.97;;;2.22;;
24859;SDS011;12936;52.006;4.350;2023-07-13T09:30:55;7.47;;;2.35;;
24859;SDS011;12936;52.006;4.350;2023-07-13T09:33:29;9.45;;;2.45;;
24859;SDS011;12936;52.006;4.350;2023-07-13T09:35:58;6.28;;;2.05;;
24859;SDS011;12936;52.006;4.350;2023-07-13T09:38:28;9.07;;;2.30;;
24859;SDS011;12936;52.006;4.350;2023-07-13T09:41:04;6.57;;;2.55;;
24859;SDS011;12936;52.006;4.350;2023-07-13T09:43:39;6.78;;;2.55;;
24859;SDS011;12936;52.006;4.350;2023-07-13T09:46:28;6.60;;;2.15;;
24859;SDS011;12936;52.006;4.350;2023-07-13T09:48:56;9.63;;;2.55;;
24859;SDS011;12936;52.006;4.350;2023-07-13T09:51:25;4.80;;;2.15;;
24859;SDS011;12936;52.006;4.350;2023-07-13T09:53:54;7.15;;;2.67;;
24859;SDS011;12936;52.006;4.350;2023-07-13T09:56:26;10.35;;;2.67;;
24859;SDS011;12936;52.006;4.350;2023-07-13T09:58:56;8.30;;;2.80;;
24859;SDS011;12936;52.006;4.350;2023-07-13T10:01:31;6.80;;;2.17;;
24859;SDS011;12936;52.006;4.350;2023-07-13T10:04:01;4.93;;;2.22;;
24859;SDS011;12936;52.006;4.350;2023-07-13T10:06:39;7.60;;;2.33;;
24859;SDS011;12936;52.006;4.350;2023-07-13T10:09:13;9.10;;;2.55;;
24859;SDS011;12936;52.006;4.350;2023-07-13T10:11:45;9.82;;;2.40;;
24859;SDS011;12936;52.006;4.350;2023-07-13T10:14:14;11.63;;;2.40;;
24859;SDS011;12936;52.006;4.350;2023-07-13T10:16:45;6.18;;;2.33;;
24859;SDS011;12936;52.006;4.350;2023-07-13T10:19:17;8.48;;;2.60;;
24859;SDS011;12936;52.006;4.350;2023-07-13T10:21:52;6.65;;;2.10;;
24859;SDS011;12936;52.006;4.350;2023-07-13T10:24:23;6.63;;;2.78;;
24859;SDS011;12936;52.006;4.350;2023-07-13T10:26:56;4.80;;;2.30;;
24859;SDS011;12936;52.006;4.350;2023-07-13T10:29:32;8.88;;;2.88;;
24859;SDS011;12936;52.006;4.350;2023-07-13T10:32:07;6.65;;;2.30;;
24859;SDS011;12936;52.006;4.350;2023-07-13T10:34:38;10.38;;;2.40;;
24859;SDS011;12936;52.006;4.350;2023-07-13T10:37:07;6.75;;;2.80;;
24859;SDS011;12936;52.006;4.350;2023-07-13T10:39:51;10.65;;;2.60;;
24859;SDS011;12936;52.006;4.350;2023-07-13T10:42:26;8.32;;;2.65;;
24859;SDS011;12936;52.006;4.350;2023-07-13T10:44:58;5.38;;;2.28;;
24859;SDS011;12936;52.006;4.350;2023-07-13T10:47:28;8.48;;;2.28;;
24859;SDS011;12936;52.006;4.350;2023-07-13T10:49:57;8.15;;;2.10;;
24859;SDS011;12936;52.006;4.350;2023-07-13T10:52:40;8.32;;;2.63;;
24859;SDS011;12936;52.006;4.350;2023-07-13T10:58:29;4.35;;;1.75;;
24859;SDS011;12936;52.006;4.350;2023-07-13T11:01:07;5.72;;;2.50;;
24859;SDS011;12936;52.006;4.350;2023-07-13T11:03:38;6.18;;;2.08;;
24859;SDS011;12936;52.006;4.350;2023-07-13T11:06:28;7.50;;;1.88;;
24859;SDS011;12936;52.006;4.350;2023-07-13T11:09:07;7.93;;;2.22;;
24859;SDS011;12936;52.006;4.350;2023-07-13T11:12:13;4.88;;;2.28;;
24859;SDS011;12936;52.006;4.350;2023-07-13T11:15:26;5.90;;;2.35;;
24859;SDS011;12936;52.006;4.350;2023-07-13T11:17:59;8.15;;;2.20;;
24859;SDS011;12936;52.006;4.350;2023-07-13T11:20:33;6.25;;;2.30;;
24859;SDS011;12936;52.006;4.350;2023-07-13T11:23:17;9.77;;;2.47;;
24859;SDS011;12936;52.006;4.350;2023-07-13T11:25:56;5.00;;;2.25;;
24859;SDS011;12936;52.006;4.350;2023-07-13T11:28:26;8.05;;;2.50;;
24859;SDS011;12936;52.006;4.350;2023-07-13T11:31:03;6.85;;;2.58;;
24859;SDS011;12936;52.006;4.350;2023-07-13T11:36:32;5.45;;;2.10;;
24859;SDS011;12936;52.006;4.350;2023-07-13T11:39:15;6.90;;;2.42;;
24859;SDS011;12936;52.006;4.350;2023-07-13T11:41:45;6.70;;;2.22;;
24859;SDS011;12936;52.006;4.350;2023-07-13T11:44:20;5.22;;;2.88;;
24859;SDS011;12936;52.006;4.350;2023-07-13T11:46:53;5.07;;;2.63;;
24859;SDS011;12936;52.006;4.350;2023-07-13T11:49:23;7.13;;;2.60;;
24859;SDS011;12936;52.006;4.350;2023-07-13T11:51:53;5.10;;;2.50;;
24859;SDS011;12936;52.006;4.350;2023-07-13T11:54:24;8.40;;;2.67;;
24859;SDS011;12936;52.006;4.350;2023-07-13T11:56:57;4.28;;;2.13;;
24859;SDS011;12936;52.006;4.350;2023-07-13T11:59:29;4.85;;;2.20;;
24859;SDS011;12936;52.006;4.350;2023-07-13T12:02:01;6.43;;;2.38;;
24859;SDS011;12936;52.006;4.350;2023-07-13T12:04:31;7.20;;;2.25;;
24859;SDS011;12936;52.006;4.350;2023-07-13T12:07:05;8.00;;;2.30;;
24859;SDS011;12936;52.006;4.350;2023-07-13T12:09:36;8.48;;;2.30;;
24859;SDS011;12936;52.006;4.350;2023-07-13T12:12:10;7.32;;;2.08;;
24859;SDS011;12936;52.006;4.350;2023-07-13T12:14:39;6.90;;;2.00;;
24859;SDS011;12936;52.006;4.350;2023-07-13T12:17:16;9.20;;;2.33;;
24859;SDS011;12936;52.006;4.350;2023-07-13T12:19:47;3.63;;;2.22;;
24859;SDS011;12936;52.006;4.350;2023-07-13T12:22:16;3.25;;;2.00;;
24859;SDS011;12936;52.006;4.350;2023-07-13T12:24:47;5.85;;;2.10;;
24859;SDS011;12936;52.006;4.350;2023-07-13T12:27:18;5.70;;;2.10;;
24859;SDS011;12936;52.006;4.350;2023-07-13T12:29:51;4.85;;;1.73;;
24859;SDS011;12936;52.006;4.350;2023-07-13T12:32:26;6.65;;;2.10;;
24859;SDS011;12936;52.006;4.350;2023-07-13T12:35:01;4.60;;;1.90;;
24859;SDS011;12936;52.006;4.350;2023-07-13T12:37:41;6.15;;;2.00;;
24859;SDS011;12936;52.006;4.350;2023-07-13T12:40:19;6.30;;;2.10;;
24859;SDS011;12936;52.006;4.350;2023-07-13T12:42:50;4.78;;;1.92;;
24859;SDS011;12936;52.006;4.350;2023-07-13T12:45:21;9.45;;;2.28;;
24859;SDS011;12936;52.006;4.350;2023-07-13T12:47:54;4.30;;;1.80;;
24859;SDS011;12936;52.006;4.350;2023-07-13T12:50:29;7.18;;;1.67;;
24859;SDS011;12936;52.006;4.350;2023-07-13T12:53:02;4.10;;;1.80;;
24859;SDS011;12936;52.006;4.350;2023-07-13T12:55:40;7.88;;;2.00;;
24859;SDS011;12936;52.006;4.350;2023-07-13T12:58:13;6.22;;;1.98;;
24859;SDS011;12936;52.006;4.350;2023-07-13T13:00:50;3.92;;;1.40;;
24859;SDS011;12936;52.006;4.350;2023-07-13T13:03:24;2.75;;;1.48;;
24859;SDS011;12936;52.006;4.350;2023-07-13T13:06:01;6.68;;;1.90;;
24859;SDS011;12936;52.006;4.350;2023-07-13T13:08:34;7.68;;;2.20;;
24859;SDS011;12936;52.006;4.350;2023-07-13T13:11:04;6.43;;;1.70;;
24859;SDS011;12936;52.006;4.350;2023-07-13T13:13:34;4.90;;;1.80;;
24859;SDS011;12936;52.006;4.350;2023-07-13T13:16:07;6.60;;;1.73;;
24859;SDS011;12936;52.006;4.350;2023-07-13T13:18:41;3.92;;;1.88;;
24859;SDS011;12936;52.006;4.350;2023-07-13T13:21:10;3.17;;;1.70;;
24859;SDS011;12936;52.006;4.350;2023-07-13T13:23:41;3.90;;;1.65;;
24859;SDS011;12936;52.006;4.350;2023-07-13T13:26:10;4.57;;;1.55;;
24859;SDS011;12936;52.006;4.350;2023-07-13T13:28:42;5.10;;;1.60;;
24859;SDS011;12936;52.006;4.350;2023-07-13T13:31:21;5.40;;;1.40;;
24859;SDS011;12936;52.006;4.350;2023-07-13T13:33:51;7.50;;;2.00;;
24859;SDS011;12936;52.006;4.350;2023-07-13T13:36:21;4.40;;;1.40;;
24859;SDS011;12936;52.006;4.350;2023-07-13T13:39:16;4.88;;;1.45;;
24859;SDS011;12936;52.006;4.350;2023-07-13T13:41:49;5.00;;;1.33;;
24859;SDS011;12936;52.006;4.350;2023-07-13T13:44:20;6.03;;;1.63;;
24859;SDS011;12936;52.006;4.350;2023-07-13T13:47:17;3.80;;;1.58;;
24859;SDS011;12936;52.006;4.350;2023-07-13T13:49:55;4.22;;;1.40;;
24859;SDS011;12936;52.006;4.350;2023-07-13T13:52:26;3.00;;;1.40;;
24859;SDS011;12936;52.006;4.350;2023-07-13T13:54:56;3.28;;;1.48;;
24859;SDS011;12936;52.006;4.350;2023-07-13T13:57:24;5.13;;;1.30;;
24859;SDS011;12936;52.006;4.350;2023-07-13T13:59:55;3.25;;;1.20;;
24859;SDS011;12936;52.006;4.350;2023-07-13T14:02:24;4.78;;;1.30;;
24859;SDS011;12936;52.006;4.350;2023-07-13T14:04:58;6.15;;;1.30;;
24859;SDS011;12936;52.006;4.350;2023-07-13T14:07:30;2.95;;;1.42;;
24859;SDS011;12936;52.006;4.350;2023-07-13T14:10:00;5.05;;;1.30;;
24859;SDS011;12936;52.006;4.350;2023-07-13T14:12:28;4.40;;;1.23;;
24859;SDS011;12936;52.006;4.350;2023-07-13T14:14:57;4.22;;;1.30;;
24859;SDS011;12936;52.006;4.350;2023-07-13T14:17:26;3.38;;;1.25;;
24859;SDS011;12936;52.006;4.350;2023-07-13T14:19:56;5.50;;;1.48;;
24859;SDS011;12936;52.006;4.350;2023-07-13T14:22:25;4.75;;;1.60;;
24859;SDS011;12936;52.006;4.350;2023-07-13T14:24:54;4.03;;;1.40;;
24859;SDS011;12936;52.006;4.350;2023-07-13T14:27:24;5.13;;;1.67;;
24859;SDS011;12936;52.006;4.350;2023-07-13T14:29:52;3.30;;;1.38;;
24859;SDS011;12936;52.006;4.350;2023-07-13T14:32:20;5.22;;;1.27;;
24859;SDS011;12936;52.006;4.350;2023-07-13T14:34:48;4.90;;;1.67;;
24859;SDS011;12936;52.006;4.350;2023-07-13T14:37:19;3.92;;;1.33;;
24859;SDS011;12936;52.006;4.350;2023-07-13T14:39:47;3.85;;;1.30;;
24859;SDS011;12936;52.006;4.350;2023-07-13T14:42:18;4.15;;;1.40;;
24859;SDS011;12936;52.006;4.350;2023-07-13T14:44:46;6.85;;;2.00;;
24859;SDS011;12936;52.006;4.350;2023-07-13T14:47:14;8.38;;;1.90;;
24859;SDS011;12936;52.006;4.350;2023-07-13T14:49:43;5.78;;;1.48;;
24859;SDS011;12936;52.006;4.350;2023-07-13T14:52:15;4.00;;;1.30;;
24859;SDS011;12936;52.006;4.350;2023-07-13T14:54:46;3.15;;;1.33;;
24859;SDS011;12936;52.006;4.350;2023-07-13T14:57:14;4.35;;;1.30;;
24859;SDS011;12936;52.006;4.350;2023-07-13T14:59:44;6.38;;;1.52;;
24859;SDS011;12936;52.006;4.350;2023-07-13T15:02:16;3.97;;;1.30;;
24859;SDS011;12936;52.006;4.350;2023-07-13T15:04:50;4.43;;;1.40;;
24859;SDS011;12936;52.006;4.350;2023-07-13T15:07:18;3.60;;;1.27;;
24859;SDS011;12936;52.006;4.350;2023-07-13T15:09:48;3.95;;;1.17;;
24859;SDS011;12936;52.006;4.350;2023-07-13T15:12:17;3.92;;;1.40;;
24859;SDS011;12936;52.006;4.350;2023-07-13T15:14:46;4.47;;;1.63;;
24859;SDS011;12936;52.006;4.350;2023-07-13T15:17:18;4.00;;;1.77;;
24859;SDS011;12936;52.006;4.350;2023-07-13T15:19:53;4.63;;;1.50;;
24859;SDS011;12936;52.006;4.350;2023-07-13T15:22:22;6.68;;;1.50;;
24859;SDS011;12936;52.006;4.350;2023-07-13T15:24:52;4.15;;;1.58;;
24859;SDS011;12936;52.006;4.350;2023-07-13T15:27:24;5.40;;;1.58;;
24859;SDS011;12936;52.006;4.350;2023-07-13T15:29:53;5.93;;;1.70;;
24859;SDS011;12936;52.006;4.350;2023-07-13T15:32:21;5.68;;;1.27;;
24859;SDS011;12936;52.006;4.350;2023-07-13T15:34:49;5.47;;;1.55;;
24859;SDS011;12936;52.006;4.350;2023-07-13T15:37:18;4.30;;;1.70;;
24859;SDS011;12936;52.006;4.350;2023-07-13T15:39:46;6.90;;;1.50;;
24859;SDS011;12936;52.006;4.350;2023-07-13T15:42:16;4.47;;;1.55;;
24859;SDS011;12936;52.006;4.350;2023-07-13T15:44:46;9.40;;;1.75;;
24859;SDS011;12936;52.006;4.350;2023-07-13T15:47:15;5.82;;;1.48;;